createdAt,value
2022-10-10T00:01:34.649Z,9.60
2022-10-10T00:04:07.279Z,9.60
2022-10-10T00:06:34.271Z,9.50
2022-10-10T00:09:02.102Z,9.50
2022-10-10T00:11:29.352Z,9.50
2022-10-10T00:13:56.562Z,9.50
2022-10-10T00:16:23.556Z,9.40
2022-10-10T00:18:50.399Z,9.40
2022-10-10T00:21:17.480Z,9.40
2022-10-10T00:23:44.259Z,9.40
2022-10-10T00:26:18.564Z,9.40
2022-10-10T00:28:46.304Z,9.50
2022-10-10T00:31:13.143Z,9.50
2022-10-10T00:33:44.765Z,9.40
2022-10-10T00:36:14.316Z,9.40
2022-10-10T00:38:41.264Z,9.40
2022-10-10T00:41:08.447Z,9.40
2022-10-10T00:43:38.126Z,9.40
2022-10-10T00:46:09.624Z,9.30
2022-10-10T00:48:41.632Z,9.30
2022-10-10T00:51:10.602Z,9.30
2022-10-10T00:53:42.594Z,9.30
2022-10-10T00:56:13.614Z,9.30
2022-10-10T00:58:46.487Z,9.20
2022-10-10T01:01:16.295Z,9.30
2022-10-10T01:03:43.334Z,9.30
2022-10-10T01:06:10.453Z,9.20
2022-10-10T01:08:37.712Z,9.20
2022-10-10T01:11:19.893Z,9.10
2022-10-10T01:14:20.923Z,9.10
2022-10-10T01:17:06.583Z,9.00
2022-10-10T01:19:54.431Z,8.90
2022-10-10T01:22:32.582Z,8.90
2022-10-10T01:24:59.197Z,8.70
2022-10-10T01:27:32.091Z,8.70
2022-10-10T01:30:03.727Z,8.70
2022-10-10T01:32:34.551Z,8.70
2022-10-10T01:35:17.944Z,8.70
2022-10-10T01:38:12.287Z,8.80
2022-10-10T01:40:42.063Z,8.80
2022-10-10T01:43:09.791Z,8.80
2022-10-10T01:45:36.672Z,8.80
2022-10-10T01:48:07.460Z,8.70
2022-10-10T01:50:48.253Z,8.70
2022-10-10T01:53:22.891Z,8.70
2022-10-10T01:55:59.713Z,8.70
2022-10-10T01:58:50.685Z,8.80
2022-10-10T02:01:34.486Z,8.80
2022-10-10T02:04:15.107Z,8.80
2022-10-10T02:06:50.609Z,8.70
2022-10-10T02:09:23.521Z,8.80
2022-10-10T02:11:50.404Z,8.80
2022-10-10T02:14:28.167Z,8.80
2022-10-10T02:16:56.101Z,8.80
2022-10-10T02:19:27.034Z,8.80
2022-10-10T02:21:56.488Z,8.80
2022-10-10T02:24:26.587Z,8.90
2022-10-10T02:27:02.285Z,8.90
2022-10-10T02:29:38.275Z,8.90
2022-10-10T02:32:22.072Z,9.10
2022-10-10T02:34:52.976Z,9.10
2022-10-10T02:37:23.301Z,9.10
2022-10-10T02:39:57.112Z,9.10
2022-10-10T02:42:24.849Z,9.10
2022-10-10T02:44:51.947Z,9.10
2022-10-10T02:47:21.123Z,9.10
2022-10-10T02:49:50.247Z,9.10
2022-10-10T02:52:17.882Z,9.10
2022-10-10T02:54:44.758Z,9.10
2022-10-10T02:57:14.785Z,9.10
2022-10-10T02:59:41.603Z,9.00
2022-10-10T03:02:10.677Z,8.90
2022-10-10T03:04:37.445Z,8.90
2022-10-10T03:07:05.807Z,8.80
2022-10-10T03:09:34.998Z,8.80
2022-10-10T03:12:04.418Z,8.80
2022-10-10T03:14:31.183Z,8.80
2022-10-10T03:17:00.536Z,8.80
2022-10-10T03:19:27.174Z,8.80
2022-10-10T03:21:53.825Z,8.80
2022-10-10T03:24:20.538Z,8.80
2022-10-10T03:26:49.487Z,8.80
2022-10-10T03:29:16.141Z,8.80
2022-10-10T03:31:42.899Z,8.80
2022-10-10T03:34:09.853Z,8.80
2022-10-10T03:36:36.580Z,8.70
2022-10-10T03:39:03.876Z,8.70
2022-10-10T03:41:31.006Z,8.70
2022-10-10T03:43:57.731Z,8.70
2022-10-10T03:46:26.838Z,8.80
2022-10-10T03:48:53.580Z,8.70
2022-10-10T03:51:20.585Z,8.70
2022-10-10T03:53:47.239Z,8.70
2022-10-10T03:56:13.946Z,8.80
2022-10-10T03:58:40.599Z,8.80
2022-10-10T04:01:09.870Z,8.80
2022-10-10T04:03:36.671Z,8.80
2022-10-10T04:06:03.409Z,8.70
2022-10-10T04:08:30.600Z,8.70
2022-10-10T04:10:57.581Z,8.70
2022-10-10T04:13:28.002Z,8.70
2022-10-10T04:15:58.321Z,8.80
2022-10-10T04:18:25.483Z,8.80
2022-10-10T04:20:52.150Z,8.80
2022-10-10T04:23:21.421Z,8.90
2022-10-10T04:25:51.389Z,8.80
2022-10-10T04:28:20.332Z,8.90
2022-10-10T04:30:47.176Z,8.80
2022-10-10T04:33:13.801Z,8.90
2022-10-10T04:35:40.448Z,8.90
2022-10-10T04:38:09.446Z,9.00
2022-10-10T04:40:37.930Z,9.00
2022-10-10T04:43:06.873Z,9.10
2022-10-10T04:45:37.370Z,9.00
2022-10-10T04:48:04.246Z,9.10
2022-10-10T04:50:30.980Z,9.20
2022-10-10T04:52:57.643Z,9.20
2022-10-10T04:55:29.079Z,9.30
2022-10-10T04:57:55.783Z,9.30
2022-10-10T05:00:22.534Z,9.30
2022-10-10T05:02:49.543Z,9.30
2022-10-10T05:05:16.609Z,9.30
2022-10-10T05:07:43.259Z,9.30
2022-10-10T05:10:12.182Z,9.30
2022-10-10T05:12:38.887Z,9.30
2022-10-10T05:15:06.201Z,9.20
2022-10-10T05:17:32.987Z,9.30
2022-10-10T05:19:59.639Z,9.30
2022-10-10T05:22:26.284Z,9.30
2022-10-10T05:24:53.021Z,9.30
2022-10-10T05:27:21.832Z,9.30
2022-10-10T05:29:48.517Z,9.30
2022-10-10T05:32:15.177Z,9.30
2022-10-10T05:34:41.827Z,9.30
2022-10-10T05:37:11.321Z,9.30
2022-10-10T05:39:37.991Z,9.30
2022-10-10T05:42:04.990Z,9.30
2022-10-10T05:44:36.331Z,9.30
2022-10-10T05:47:05.157Z,9.30
2022-10-10T05:49:31.874Z,9.30
2022-10-10T05:51:58.552Z,9.30
2022-10-10T05:54:27.625Z,9.20
2022-10-10T05:56:56.794Z,9.20
2022-10-10T05:59:28.069Z,9.20
2022-10-10T06:01:54.705Z,9.30
2022-10-10T06:04:24.075Z,9.30
2022-10-10T06:06:51.205Z,9.30
2022-10-10T06:09:17.870Z,9.40
2022-10-10T06:11:44.526Z,9.40
2022-10-10T06:14:11.211Z,9.40
2022-10-10T06:16:39.535Z,9.40
2022-10-10T06:19:07.390Z,9.40
2022-10-10T06:21:35.259Z,9.40
2022-10-10T06:24:01.969Z,9.40
2022-10-10T06:26:28.676Z,9.40
2022-10-10T06:28:57.594Z,9.40
2022-10-10T06:31:26.529Z,9.50
2022-10-10T06:33:55.744Z,9.50
2022-10-10T06:36:22.420Z,9.60
2022-10-10T06:38:49.059Z,9.70
2022-10-10T06:41:18.171Z,9.70
2022-10-10T06:43:45.609Z,9.80
2022-10-10T06:46:14.790Z,9.70
2022-10-10T06:48:41.515Z,9.80
2022-10-10T06:51:12.982Z,9.80
2022-10-10T06:53:42.971Z,9.90
2022-10-10T06:56:26.381Z,9.90
2022-10-10T06:58:54.278Z,10.00
2022-10-10T07:01:22.815Z,10.00
2022-10-10T07:03:52.009Z,10.00
2022-10-10T07:06:18.679Z,10.10
2022-10-10T07:08:45.428Z,10.10
2022-10-10T07:11:12.257Z,10.10
2022-10-10T07:13:39.082Z,10.20
2022-10-10T07:16:09.924Z,10.20
2022-10-10T07:18:37.680Z,10.20
2022-10-10T07:21:05.267Z,10.30
2022-10-10T07:23:32.868Z,10.40
2022-10-10T07:26:01.874Z,10.40
2022-10-10T07:28:29.621Z,10.40
2022-10-10T07:31:01.762Z,10.50
2022-10-10T07:33:38.077Z,10.60
2022-10-10T07:36:08.286Z,10.60
2022-10-10T07:38:40.106Z,10.70
2022-10-10T07:41:13.126Z,10.80
2022-10-10T07:43:40.068Z,10.80
2022-10-10T07:46:13.658Z,10.90
2022-10-10T07:48:40.578Z,11.00
2022-10-10T07:51:09.962Z,11.10
2022-10-10T07:53:38.877Z,11.10
2022-10-10T07:56:11.886Z,11.20
2022-10-10T07:58:39.203Z,11.30
2022-10-10T08:01:11.300Z,11.40
2022-10-10T08:03:41.415Z,11.40
2022-10-10T08:06:10.717Z,11.50
2022-10-10T08:08:50.100Z,11.60
2022-10-10T08:11:18.859Z,11.60
2022-10-10T08:13:48.437Z,11.70
2022-10-10T08:16:15.972Z,11.80
2022-10-10T08:18:42.872Z,11.90
2022-10-10T08:21:12.118Z,12.00
2022-10-10T08:23:40.971Z,12.10
2022-10-10T08:26:10.056Z,12.20
2022-10-10T08:28:37.830Z,12.30
2022-10-10T08:31:06.574Z,12.40
2022-10-10T08:33:33.626Z,12.40
2022-10-10T08:36:08.194Z,12.50
2022-10-10T08:38:35.841Z,12.60
2022-10-10T08:41:14.702Z,12.70
2022-10-10T08:43:47.412Z,12.80
2022-10-10T08:46:31.668Z,12.80
2022-10-10T08:49:01.198Z,12.90
2022-10-10T08:51:36.100Z,12.90
2022-10-10T08:54:05.479Z,13.10
2022-10-10T08:56:34.667Z,13.10
2022-10-10T08:59:11.812Z,13.10
2022-10-10T09:02:18.462Z,13.20
2022-10-10T09:04:25.540Z,13.20
2022-10-10T09:07:09.155Z,13.30
2022-10-10T09:09:57.424Z,13.30
2022-10-10T09:12:51.105Z,13.40
2022-10-10T09:15:24.045Z,13.50
2022-10-10T09:18:10.505Z,13.60
2022-10-10T09:20:48.667Z,13.80
2022-10-10T09:23:39.206Z,13.90
2022-10-10T09:26:16.401Z,14.00
2022-10-10T09:29:01.627Z,14.00
2022-10-10T09:31:43.947Z,14.00
2022-10-10T09:34:15.573Z,14.00
2022-10-10T09:36:44.390Z,14.10
2022-10-10T09:39:45.386Z,14.30
2022-10-10T09:42:15.223Z,14.40
2022-10-10T09:44:42.484Z,14.70
2022-10-10T09:47:13.938Z,14.80
2022-10-10T09:49:44.795Z,14.90
2022-10-10T09:52:21.567Z,15.00
2022-10-10T09:54:49.240Z,15.20
2022-10-10T09:57:20.509Z,15.30
2022-10-10T09:59:47.306Z,15.30
2022-10-10T10:02:27.956Z,15.40
2022-10-10T10:04:55.470Z,15.50
2022-10-10T10:07:28.194Z,15.50
2022-10-10T10:10:26.641Z,15.70
2022-10-10T10:12:57.193Z,15.80
2022-10-10T10:15:30.580Z,15.90
2022-10-10T10:18:30.816Z,15.80
2022-10-10T10:21:23.646Z,15.90
2022-10-10T10:23:59.099Z,15.90
2022-10-10T10:26:46.344Z,16.10
2022-10-10T10:29:28.441Z,16.30
2022-10-10T10:32:39.465Z,16.40
2022-10-10T10:35:30.468Z,16.40
2022-10-10T10:38:23.264Z,16.50
2022-10-10T10:41:24.493Z,16.50
2022-10-10T10:44:14.312Z,16.60
2022-10-10T10:47:12.671Z,16.70
2022-10-10T10:50:13.958Z,16.90
2022-10-10T10:53:18.753Z,17.20
2022-10-10T10:55:55.611Z,17.20
2022-10-10T10:59:10.398Z,17.20
2022-10-10T11:01:57.960Z,17.20
2022-10-10T11:05:23.087Z,17.10
2022-10-10T11:07:32.751Z,16.90
2022-10-10T11:10:21.913Z,16.80
2022-10-10T11:12:51.628Z,16.70
2022-10-10T11:15:30.819Z,16.70
2022-10-10T11:18:25.492Z,16.80
2022-10-10T11:21:01.069Z,16.90
2022-10-10T11:23:45.179Z,16.90
2022-10-10T11:26:20.013Z,16.70
2022-10-10T11:29:05.146Z,16.70
2022-10-10T11:31:50.814Z,16.80
2022-10-10T11:34:43.176Z,17.00
2022-10-10T11:37:19.618Z,17.00
2022-10-10T11:40:03.330Z,16.90
2022-10-10T11:42:42.899Z,16.90
2022-10-10T11:45:27.620Z,16.90
2022-10-10T11:48:27.804Z,16.90
2022-10-10T11:51:01.329Z,17.00
2022-10-10T11:53:40.091Z,17.10
2022-10-10T11:56:27.533Z,17.10
2022-10-10T11:59:05.882Z,17.00
2022-10-10T12:01:47.387Z,17.10
2022-10-10T12:04:14.235Z,17.30
2022-10-10T12:07:01.056Z,17.50
2022-10-10T12:09:52.631Z,17.70
2022-10-10T12:12:27.823Z,17.60
2022-10-10T12:14:58.897Z,17.40
2022-10-10T12:17:31.817Z,17.50
2022-10-10T12:20:33.953Z,17.60
2022-10-10T12:23:27.555Z,17.60
2022-10-10T12:25:54.324Z,17.60
2022-10-10T12:28:30.935Z,17.80
2022-10-10T12:30:58.672Z,17.80
2022-10-10T12:33:30.830Z,17.90
2022-10-10T12:36:20.310Z,17.90
2022-10-10T12:39:18.442Z,17.90
2022-10-10T12:41:47.888Z,18.00
2022-10-10T12:44:23.384Z,18.10
2022-10-10T12:47:59.685Z,18.10
2022-10-10T12:50:27.841Z,18.20
2022-10-10T12:52:56.569Z,18.20
2022-10-10T12:55:26.297Z,18.30
2022-10-10T12:57:56.127Z,18.40
2022-10-10T13:00:46.741Z,18.40
2022-10-10T13:03:42.253Z,18.40
2022-10-10T13:06:31.861Z,18.50
2022-10-10T13:09:01.712Z,18.50
2022-10-10T13:11:31.055Z,18.60
2022-10-10T13:14:07.522Z,18.60
2022-10-10T13:16:43.977Z,18.60
2022-10-10T13:19:21.578Z,18.70
2022-10-10T13:21:51.365Z,18.80
2022-10-10T13:24:20.764Z,18.70
2022-10-10T13:26:50.133Z,18.80
2022-10-10T13:29:21.984Z,18.80
2022-10-10T13:31:52.759Z,18.80
2022-10-10T13:34:27.150Z,18.90
2022-10-10T13:36:56.412Z,18.90
2022-10-10T13:39:23.841Z,18.90
2022-10-10T13:41:51.414Z,18.90
2022-10-10T13:44:24.109Z,18.90
2022-10-10T13:46:53.116Z,18.90
2022-10-10T13:49:26.000Z,18.90
2022-10-10T13:52:05.066Z,19.00
2022-10-10T13:54:50.000Z,19.00
2022-10-10T13:57:21.612Z,19.10
2022-10-10T14:00:06.512Z,19.10
2022-10-10T14:02:39.223Z,19.10
2022-10-10T14:05:09.271Z,19.20
2022-10-10T14:07:36.475Z,19.30
2022-10-10T14:10:10.466Z,19.40
2022-10-10T14:12:41.121Z,19.80
2022-10-10T14:15:33.369Z,19.80
2022-10-10T14:18:00.018Z,19.90
2022-10-10T14:20:26.743Z,19.80
2022-10-10T14:22:53.387Z,19.90
2022-10-10T14:25:20.064Z,20.00
2022-10-10T14:27:49.259Z,20.00
2022-10-10T14:30:18.133Z,21.40
2022-10-10T14:32:44.841Z,21.70
2022-10-10T14:35:13.307Z,21.70
2022-10-10T14:37:40.220Z,22.00
2022-10-10T14:40:21.886Z,23.10
2022-10-10T14:42:48.813Z,24.30
2022-10-10T14:45:17.068Z,23.60
2022-10-10T14:47:43.791Z,21.80
2022-10-10T14:50:19.083Z,21.30
2022-10-10T14:52:48.286Z,21.20
2022-10-10T14:55:15.029Z,20.80
2022-10-10T14:57:42.453Z,20.50
2022-10-10T15:00:15.802Z,20.20
2022-10-10T15:02:45.597Z,20.00
2022-10-10T15:05:18.200Z,19.80
2022-10-10T15:07:48.231Z,19.70
2022-10-10T15:13:01.899Z,19.50
2022-10-10T15:15:28.722Z,19.40
2022-10-10T15:17:59.844Z,19.30
2022-10-10T15:20:31.097Z,19.20
2022-10-10T15:23:06.485Z,19.20
2022-10-10T15:25:34.362Z,19.00
2022-10-10T15:28:02.815Z,19.00
2022-10-10T15:30:30.167Z,18.90
2022-10-10T15:32:59.411Z,18.80
2022-10-10T15:35:30.180Z,18.70
2022-10-10T15:38:08.943Z,18.60
2022-10-10T15:40:35.730Z,18.50
2022-10-10T15:43:02.461Z,18.50
2022-10-10T15:45:54.326Z,18.40
2022-10-10T15:48:18.110Z,18.30
2022-10-10T15:50:45.180Z,18.30
2022-10-10T15:53:14.334Z,18.20
2022-10-10T15:55:46.059Z,18.10
2022-10-10T15:58:13.936Z,18.10
2022-10-10T16:00:44.859Z,18.00
2022-10-10T16:03:12.154Z,18.00
2022-10-10T16:05:40.503Z,17.90
2022-10-10T16:08:08.283Z,17.90
2022-10-10T16:10:44.400Z,17.90
2022-10-10T16:13:11.303Z,18.00
2022-10-10T16:15:38.248Z,17.90
2022-10-10T16:18:07.375Z,17.70
2022-10-10T16:20:34.012Z,17.70
2022-10-10T16:23:02.948Z,17.70
2022-10-10T16:25:29.630Z,17.70
2022-10-10T16:27:58.750Z,17.70
2022-10-10T16:30:25.494Z,17.70
2022-10-10T16:32:52.127Z,17.70
2022-10-10T16:35:18.799Z,17.70
2022-10-10T16:37:45.458Z,17.70
2022-10-10T16:40:14.626Z,17.60
2022-10-10T16:42:41.385Z,17.70
2022-10-10T16:45:11.169Z,17.70
2022-10-10T16:47:39.996Z,17.60
2022-10-10T16:50:09.463Z,17.50
2022-10-10T16:52:38.264Z,17.50
2022-10-10T16:55:07.107Z,17.50
2022-10-10T16:57:35.516Z,17.40
2022-10-10T17:00:02.550Z,17.40
2022-10-10T17:02:29.269Z,17.30
2022-10-10T17:04:57.799Z,17.20
2022-10-10T17:07:24.683Z,17.20
2022-10-10T17:09:51.326Z,17.30
2022-10-10T17:12:19.383Z,17.20
2022-10-10T17:14:50.991Z,17.30
2022-10-10T17:17:19.332Z,17.30
2022-10-10T17:19:49.044Z,17.20
2022-10-10T17:22:16.022Z,17.20
2022-10-10T17:24:42.706Z,17.20
2022-10-10T17:27:09.435Z,17.20
2022-10-10T17:29:36.105Z,17.10
2022-10-10T17:32:06.777Z,17.20
2022-10-10T17:34:33.840Z,17.10
2022-10-10T17:37:00.595Z,17.10
2022-10-10T17:39:27.322Z,17.10
2022-10-10T17:41:54.096Z,17.10
2022-10-10T17:44:20.865Z,17.10
2022-10-10T17:46:47.561Z,17.10
2022-10-10T17:49:14.317Z,17.10
2022-10-10T17:51:41.721Z,17.10
2022-10-10T17:54:09.856Z,17.10
2022-10-10T17:56:37.369Z,17.10
2022-10-10T17:59:06.451Z,17.00
2022-10-10T18:01:36.731Z,17.00
2022-10-10T18:04:04.075Z,17.00
2022-10-10T18:06:31.619Z,17.00
2022-10-10T18:08:58.676Z,17.00
2022-10-10T18:11:28.172Z,16.90
2022-10-10T18:14:00.079Z,16.90
2022-10-10T18:16:29.687Z,16.80
2022-10-10T18:18:56.404Z,16.80
2022-10-10T18:21:24.005Z,16.80
2022-10-10T18:23:51.644Z,16.80
2022-10-10T18:26:21.339Z,16.70
2022-10-10T18:28:48.550Z,16.70
2022-10-10T18:31:16.775Z,16.70
2022-10-10T18:33:44.889Z,16.60
2022-10-10T18:36:13.523Z,16.60
2022-10-10T18:38:40.731Z,16.60
2022-10-10T18:41:19.417Z,16.60
2022-10-10T18:43:49.036Z,16.60
2022-10-10T18:46:18.595Z,16.60
2022-10-10T18:48:49.060Z,16.60
2022-10-10T18:51:24.072Z,16.60
2022-10-10T18:54:00.769Z,16.50
2022-10-10T18:56:30.031Z,16.50
2022-10-10T18:59:01.697Z,16.50
2022-10-10T19:01:30.724Z,16.50
2022-10-10T19:03:57.513Z,16.50
2022-10-10T19:06:25.436Z,16.40
2022-10-10T19:08:55.517Z,16.30
2022-10-10T19:11:27.038Z,16.30
2022-10-10T19:13:54.863Z,16.30
2022-10-10T19:16:22.119Z,16.30
2022-10-10T19:18:48.792Z,16.30
2022-10-10T19:21:16.129Z,16.20
2022-10-10T19:23:45.615Z,16.20
2022-10-10T19:26:15.694Z,16.20
2022-10-10T19:28:46.835Z,16.10
2022-10-10T19:31:15.810Z,16.10
2022-10-10T19:33:43.237Z,16.10
2022-10-10T19:36:14.392Z,16.10
2022-10-10T19:38:41.993Z,16.10
2022-10-10T19:41:12.794Z,16.10
2022-10-10T19:43:40.689Z,16.10
2022-10-10T19:46:15.326Z,16.10
2022-10-10T19:48:42.868Z,16.10
2022-10-10T19:51:12.405Z,16.00
2022-10-10T19:53:42.370Z,16.00
2022-10-10T19:56:13.233Z,16.00
2022-10-10T19:58:39.946Z,15.90
2022-10-10T20:01:12.492Z,15.80
2022-10-10T20:03:41.812Z,15.80
2022-10-10T20:06:11.168Z,15.80
2022-10-10T20:08:40.653Z,15.70
2022-10-10T20:11:07.593Z,15.70
2022-10-10T20:13:34.973Z,15.70
2022-10-10T20:16:04.405Z,15.60
2022-10-10T20:18:34.040Z,15.60
2022-10-10T20:21:01.009Z,15.50
2022-10-10T20:23:28.172Z,15.50
2022-10-10T20:25:54.926Z,15.50
2022-10-10T20:28:22.517Z,15.70
2022-10-10T20:30:51.809Z,15.40
2022-10-10T20:33:20.388Z,15.40
2022-10-10T20:35:55.809Z,15.40
2022-10-10T20:38:22.944Z,15.30
2022-10-10T20:40:54.839Z,15.20
2022-10-10T20:43:21.579Z,15.20
2022-10-10T20:45:50.726Z,15.20
2022-10-10T20:48:17.381Z,15.10
2022-10-10T20:50:44.104Z,15.00
2022-10-10T20:53:13.591Z,15.00
2022-10-10T20:55:42.682Z,15.00
2022-10-10T20:58:14.273Z,14.90
2022-10-10T21:00:44.613Z,15.00
2022-10-10T21:05:40.534Z,14.70
2022-10-10T21:08:11.939Z,14.70
2022-10-10T21:10:40.599Z,14.70
2022-10-10T21:13:07.288Z,14.70
2022-10-10T21:15:33.940Z,14.60
2022-10-10T21:18:00.588Z,14.60
2022-10-10T21:20:31.971Z,14.60
2022-10-10T21:22:58.632Z,14.60
2022-10-10T21:25:25.295Z,14.60
2022-10-10T21:27:51.970Z,14.50
2022-10-10T21:30:18.935Z,14.50
2022-10-10T21:32:45.653Z,14.50
2022-10-10T21:35:12.307Z,14.50
2022-10-10T21:37:39.027Z,14.40
2022-10-10T21:40:08.940Z,14.50
2022-10-10T21:42:37.788Z,14.40
2022-10-10T21:45:04.958Z,14.40
2022-10-10T21:47:31.608Z,14.40
2022-10-10T21:49:58.257Z,14.40
2022-10-10T21:52:24.956Z,14.40
2022-10-10T21:54:52.173Z,14.40
2022-10-10T21:57:18.898Z,14.40
2022-10-10T21:59:50.235Z,14.40
2022-10-10T22:02:16.881Z,14.40
2022-10-10T22:04:43.522Z,14.30
2022-10-10T22:07:10.145Z,14.30
2022-10-10T22:09:36.808Z,14.20
2022-10-10T22:12:03.676Z,14.30
2022-10-10T22:14:30.329Z,14.20
2022-10-10T22:16:59.231Z,14.20
2022-10-10T22:19:28.218Z,14.20
2022-10-10T22:21:54.866Z,14.20
2022-10-10T22:24:24.365Z,14.20
2022-10-10T22:26:51.022Z,14.10
2022-10-10T22:29:17.685Z,14.10
2022-10-10T22:31:44.366Z,14.00
2022-10-10T22:34:11.828Z,14.00
2022-10-10T22:36:38.524Z,14.00
2022-10-10T22:39:10.885Z,13.90
2022-10-10T22:41:37.695Z,13.90
2022-10-10T22:44:04.740Z,13.80
2022-10-10T22:46:31.674Z,13.80
2022-10-10T22:48:58.395Z,13.80
2022-10-10T22:51:27.977Z,13.70
2022-10-10T22:53:54.643Z,13.60
2022-10-10T22:56:21.854Z,13.50
2022-10-10T22:58:50.405Z,13.50
2022-10-10T23:01:24.053Z,13.40
2022-10-10T23:03:54.177Z,13.40
2022-10-10T23:06:20.827Z,13.30
2022-10-10T23:08:47.476Z,13.20
2022-10-10T23:11:14.132Z,13.20
2022-10-10T23:13:40.942Z,13.20
2022-10-10T23:16:10.855Z,13.00
2022-10-10T23:18:37.551Z,13.00
2022-10-10T23:21:04.297Z,12.90
2022-10-10T23:23:30.948Z,12.90
2022-10-10T23:26:00.208Z,12.90
2022-10-10T23:28:29.102Z,12.80
2022-10-10T23:31:05.148Z,12.70
2022-10-10T23:33:36.877Z,12.70
2022-10-10T23:36:08.205Z,12.70
2022-10-10T23:38:35.166Z,12.70
2022-10-10T23:41:01.998Z,12.70
2022-10-10T23:43:28.720Z,12.60
2022-10-10T23:45:55.362Z,12.50
2022-10-10T23:48:22.046Z,12.40
2022-10-10T23:50:48.816Z,12.30
2022-10-10T23:53:15.473Z,12.30
2022-10-10T23:55:44.651Z,12.20
2022-10-10T23:58:11.343Z,12.10
